sensor_id;sensor_type;location;lat;lon;timestamp;P1;durP1;ratioP1;P2;durP2;ratioP2
59974;SDS011;62136;-35.664;-63.766;2024-02-15T00:01:19;4.20;;;2.00;;
59974;SDS011;62136;-35.664;-63.766;2024-02-15T00:03:46;4.10;;;2.15;;
59974;SDS011;62136;-35.664;-63.766;2024-02-15T00:06:15;5.05;;;2.58;;
59974;SDS011;62136;-35.664;-63.766;2024-02-15T00:08:42;3.97;;;2.00;;
59974;SDS011;62136;-35.664;-63.766;2024-02-15T00:11:12;4.68;;;2.22;;
59974;SDS011;62136;-35.664;-63.766;2024-02-15T00:13:39;3.47;;;1.83;;
59974;SDS011;62136;-35.664;-63.766;2024-02-15T00:16:06;5.38;;;2.08;;
59974;SDS011;62136;-35.664;-63.766;2024-02-15T00:18:33;4.88;;;2.28;;
59974;SDS011;62136;-35.664;-63.766;2024-02-15T00:21:00;3.20;;;1.83;;
59974;SDS011;62136;-35.664;-63.766;2024-02-15T00:23:27;2.85;;;1.85;;
59974;SDS011;62136;-35.664;-63.766;2024-02-15T00:25:54;5.15;;;1.85;;
59974;SDS011;62136;-35.664;-63.766;2024-02-15T00:28:21;6.25;;;2.28;;
59974;SDS011;62136;-35.664;-63.766;2024-02-15T00:30:49;3.33;;;1.80;;
59974;SDS011;62136;-35.664;-63.766;2024-02-15T00:33:17;3.88;;;1.90;;
59974;SDS011;62136;-35.664;-63.766;2024-02-15T00:35:44;4.57;;;1.75;;
59974;SDS011;62136;-35.664;-63.766;2024-02-15T00:38:11;4.45;;;1.98;;
59974;SDS011;62136;-35.664;-63.766;2024-02-15T00:40:38;6.15;;;1.98;;
59974;SDS011;62136;-35.664;-63.766;2024-02-15T00:43:05;4.65;;;1.90;;
59974;SDS011;62136;-35.664;-63.766;2024-02-15T00:45:34;3.35;;;1.98;;
59974;SDS011;62136;-35.664;-63.766;2024-02-15T00:48:01;4.63;;;2.15;;
59974;SDS011;62136;-35.664;-63.766;2024-02-15T00:50:28;3.85;;;2.20;;
59974;SDS011;62136;-35.664;-63.766;2024-02-15T00:52:55;4.13;;;1.90;;
59974;SDS011;62136;-35.664;-63.766;2024-02-15T00:55:23;4.63;;;1.88;;
59974;SDS011;62136;-35.664;-63.766;2024-02-15T00:57:50;2.70;;;1.63;;
59974;SDS011;62136;-35.664;-63.766;2024-02-15T01:00:18;4.55;;;1.60;;
59974;SDS011;62136;-35.664;-63.766;2024-02-15T01:02:47;4.28;;;1.73;;
59974;SDS011;62136;-35.664;-63.766;2024-02-15T01:05:16;4.32;;;1.90;;
59974;SDS011;62136;-35.664;-63.766;2024-02-15T01:07:47;3.00;;;1.98;;
59974;SDS011;62136;-35.664;-63.766;2024-02-15T01:10:34;3.08;;;2.17;;
59974;SDS011;62136;-35.664;-63.766;2024-02-15T01:13:02;3.47;;;1.95;;
59974;SDS011;62136;-35.664;-63.766;2024-02-15T01:15:30;4.35;;;2.22;;
59974;SDS011;62136;-35.664;-63.766;2024-02-15T01:17:58;3.47;;;1.60;;
59974;SDS011;62136;-35.664;-63.766;2024-02-15T01:20:25;4.72;;;1.90;;
59974;SDS011;62136;-35.664;-63.766;2024-02-15T01:22:52;4.38;;;1.83;;
59974;SDS011;62136;-35.664;-63.766;2024-02-15T01:25:19;2.85;;;1.60;;
59974;SDS011;62136;-35.664;-63.766;2024-02-15T01:28:03;3.72;;;1.60;;
59974;SDS011;62136;-35.664;-63.766;2024-02-15T01:30:33;2.70;;;1.58;;
59974;SDS011;62136;-35.664;-63.766;2024-02-15T01:33:00;4.28;;;2.10;;
59974;SDS011;62136;-35.664;-63.766;2024-02-15T01:35:27;5.72;;;2.03;;
59974;SDS011;62136;-35.664;-63.766;2024-02-15T01:37:57;4.15;;;2.08;;
59974;SDS011;62136;-35.664;-63.766;2024-02-15T01:40:26;2.58;;;1.60;;
59974;SDS011;62136;-35.664;-63.766;2024-02-15T01:42:58;3.53;;;1.83;;
59974;SDS011;62136;-35.664;-63.766;2024-02-15T01:45:26;3.60;;;1.75;;
59974;SDS011;62136;-35.664;-63.766;2024-02-15T01:47:53;2.95;;;1.42;;
59974;SDS011;62136;-35.664;-63.766;2024-02-15T01:50:21;3.17;;;2.03;;
59974;SDS011;62136;-35.664;-63.766;2024-02-15T01:52:51;2.92;;;1.63;;
59974;SDS011;62136;-35.664;-63.766;2024-02-15T01:55:22;3.58;;;1.92;;
59974;SDS011;62136;-35.664;-63.766;2024-02-15T01:57:51;3.30;;;1.50;;
59974;SDS011;62136;-35.664;-63.766;2024-02-15T02:00:18;4.28;;;1.80;;
59974;SDS011;62136;-35.664;-63.766;2024-02-15T02:02:48;3.22;;;1.50;;
59974;SDS011;62136;-35.664;-63.766;2024-02-15T02:05:27;3.30;;;1.75;;
59974;SDS011;62136;-35.664;-63.766;2024-02-15T02:07:56;2.70;;;1.77;;
59974;SDS011;62136;-35.664;-63.766;2024-02-15T02:10:26;3.88;;;1.73;;
59974;SDS011;62136;-35.664;-63.766;2024-02-15T02:13:00;4.35;;;1.90;;
59974;SDS011;62136;-35.664;-63.766;2024-02-15T02:15:35;4.57;;;2.10;;
59974;SDS011;62136;-35.664;-63.766;2024-02-15T02:20:36;2.95;;;1.92;;
59974;SDS011;62136;-35.664;-63.766;2024-02-15T02:25:39;3.20;;;1.95;;
59974;SDS011;62136;-35.664;-63.766;2024-02-15T02:28:11;2.90;;;1.65;;
59974;SDS011;62136;-35.664;-63.766;2024-02-15T02:30:39;3.65;;;1.77;;
59974;SDS011;62136;-35.664;-63.766;2024-02-15T02:33:10;3.40;;;1.80;;
59974;SDS011;62136;-35.664;-63.766;2024-02-15T02:35:44;3.28;;;1.58;;
59974;SDS011;62136;-35.664;-63.766;2024-02-15T02:38:13;2.72;;;1.58;;
59974;SDS011;62136;-35.664;-63.766;2024-02-15T02:40:40;4.80;;;1.98;;
59974;SDS011;62136;-35.664;-63.766;2024-02-15T02:43:07;3.63;;;1.83;;
59974;SDS011;62136;-35.664;-63.766;2024-02-15T02:45:35;3.80;;;1.70;;
59974;SDS011;62136;-35.664;-63.766;2024-02-15T02:48:03;3.17;;;1.40;;
59974;SDS011;62136;-35.664;-63.766;2024-02-15T02:50:30;2.70;;;1.80;;
59974;SDS011;62136;-35.664;-63.766;2024-02-15T02:52:57;3.78;;;1.75;;
59974;SDS011;62136;-35.664;-63.766;2024-02-15T02:55:24;4.28;;;2.00;;
59974;SDS011;62136;-35.664;-63.766;2024-02-15T02:57:52;3.58;;;1.70;;
59974;SDS011;62136;-35.664;-63.766;2024-02-15T03:00:20;3.40;;;1.45;;
59974;SDS011;62136;-35.664;-63.766;2024-02-15T03:02:48;3.30;;;1.58;;
59974;SDS011;62136;-35.664;-63.766;2024-02-15T03:05:15;2.45;;;1.58;;
59974;SDS011;62136;-35.664;-63.766;2024-02-15T03:07:42;3.38;;;1.60;;
59974;SDS011;62136;-35.664;-63.766;2024-02-15T03:10:11;2.55;;;1.75;;
59974;SDS011;62136;-35.664;-63.766;2024-02-15T03:12:39;2.92;;;1.60;;
59974;SDS011;62136;-35.664;-63.766;2024-02-15T03:15:12;3.80;;;1.63;;
59974;SDS011;62136;-35.664;-63.766;2024-02-15T03:17:43;2.35;;;1.65;;
59974;SDS011;62136;-35.664;-63.766;2024-02-15T03:20:12;2.55;;;1.60;;
59974;SDS011;62136;-35.664;-63.766;2024-02-15T03:25:23;2.55;;;1.63;;
59974;SDS011;62136;-35.664;-63.766;2024-02-15T03:27:51;4.88;;;2.03;;
59974;SDS011;62136;-35.664;-63.766;2024-02-15T03:30:22;2.78;;;1.63;;
59974;SDS011;62136;-35.664;-63.766;2024-02-15T03:32:51;2.97;;;1.88;;
59974;SDS011;62136;-35.664;-63.766;2024-02-15T03:35:19;4.65;;;1.70;;
59974;SDS011;62136;-35.664;-63.766;2024-02-15T03:37:50;4.00;;;1.40;;
59974;SDS011;62136;-35.664;-63.766;2024-02-15T03:40:19;3.45;;;1.60;;
59974;SDS011;62136;-35.664;-63.766;2024-02-15T03:42:47;4.05;;;1.80;;
59974;SDS011;62136;-35.664;-63.766;2024-02-15T03:45:15;2.72;;;1.50;;
59974;SDS011;62136;-35.664;-63.766;2024-02-15T03:47:42;4.30;;;1.48;;
59974;SDS011;62136;-35.664;-63.766;2024-02-15T03:50:09;2.90;;;1.40;;
59974;SDS011;62136;-35.664;-63.766;2024-02-15T03:52:37;2.78;;;1.48;;
59974;SDS011;62136;-35.664;-63.766;2024-02-15T03:55:05;2.35;;;1.65;;
59974;SDS011;62136;-35.664;-63.766;2024-02-15T03:57:37;3.25;;;1.70;;
59974;SDS011;62136;-35.664;-63.766;2024-02-15T04:00:09;3.78;;;2.00;;
59974;SDS011;62136;-35.664;-63.766;2024-02-15T04:02:36;3.05;;;1.45;;
59974;SDS011;62136;-35.664;-63.766;2024-02-15T04:05:06;2.70;;;1.30;;
59974;SDS011;62136;-35.664;-63.766;2024-02-15T04:07:34;2.65;;;1.83;;
59974;SDS011;62136;-35.664;-63.766;2024-02-15T04:10:11;2.03;;;1.40;;
59974;SDS011;62136;-35.664;-63.766;2024-02-15T04:12:38;3.65;;;1.60;;
59974;SDS011;62136;-35.664;-63.766;2024-02-15T04:15:09;6.18;;;1.73;;
59974;SDS011;62136;-35.664;-63.766;2024-02-15T04:17:42;2.20;;;1.40;;
59974;SDS011;62136;-35.664;-63.766;2024-02-15T04:20:10;3.13;;;1.80;;
59974;SDS011;62136;-35.664;-63.766;2024-02-15T04:22:38;2.58;;;1.40;;
59974;SDS011;62136;-35.664;-63.766;2024-02-15T04:25:07;2.55;;;1.33;;
59974;SDS011;62136;-35.664;-63.766;2024-02-15T04:27:42;2.80;;;1.40;;
59974;SDS011;62136;-35.664;-63.766;2024-02-15T04:30:15;2.97;;;1.50;;
59974;SDS011;62136;-35.664;-63.766;2024-02-15T04:32:42;3.50;;;1.42;;
59974;SDS011;62136;-35.664;-63.766;2024-02-15T04:35:09;4.40;;;1.50;;
59974;SDS011;62136;-35.664;-63.766;2024-02-15T04:37:37;4.68;;;1.58;;
59974;SDS011;62136;-35.664;-63.766;2024-02-15T04:40:04;2.28;;;1.40;;
59974;SDS011;62136;-35.664;-63.766;2024-02-15T04:42:43;2.63;;;1.30;;
59974;SDS011;62136;-35.664;-63.766;2024-02-15T04:45:12;3.22;;;1.60;;
59974;SDS011;62136;-35.664;-63.766;2024-02-15T04:47:41;4.10;;;1.63;;
59974;SDS011;62136;-35.664;-63.766;2024-02-15T04:50:10;3.63;;;1.67;;
59974;SDS011;62136;-35.664;-63.766;2024-02-15T04:52:37;2.97;;;1.35;;
59974;SDS011;62136;-35.664;-63.766;2024-02-15T04:55:04;3.03;;;1.75;;
59974;SDS011;62136;-35.664;-63.766;2024-02-15T04:57:32;2.63;;;1.45;;
59974;SDS011;62136;-35.664;-63.766;2024-02-15T05:00:02;3.20;;;1.67;;
59974;SDS011;62136;-35.664;-63.766;2024-02-15T05:02:37;3.03;;;1.60;;
59974;SDS011;62136;-35.664;-63.766;2024-02-15T05:05:09;2.25;;;1.50;;
59974;SDS011;62136;-35.664;-63.766;2024-02-15T05:07:38;3.92;;;1.33;;
59974;SDS011;62136;-35.664;-63.766;2024-02-15T05:10:05;4.13;;;1.90;;
59974;SDS011;62136;-35.664;-63.766;2024-02-15T05:12:34;3.35;;;1.55;;
59974;SDS011;62136;-35.664;-63.766;2024-02-15T05:15:01;3.58;;;1.40;;
59974;SDS011;62136;-35.664;-63.766;2024-02-15T05:17:38;1.67;;;1.40;;
59974;SDS011;62136;-35.664;-63.766;2024-02-15T05:20:09;1.58;;;1.27;;
59974;SDS011;62136;-35.664;-63.766;2024-02-15T05:22:38;3.20;;;1.42;;
59974;SDS011;62136;-35.664;-63.766;2024-02-15T05:27:40;2.90;;;1.40;;
59974;SDS011;62136;-35.664;-63.766;2024-02-15T05:30:09;2.80;;;1.55;;
59974;SDS011;62136;-35.664;-63.766;2024-02-15T05:32:38;3.95;;;1.42;;
59974;SDS011;62136;-35.664;-63.766;2024-02-15T05:35:09;2.45;;;1.50;;
59974;SDS011;62136;-35.664;-63.766;2024-02-15T05:37:38;3.85;;;1.42;;
59974;SDS011;62136;-35.664;-63.766;2024-02-15T05:40:05;3.17;;;1.40;;
59974;SDS011;62136;-35.664;-63.766;2024-02-15T05:42:34;3.20;;;1.38;;
59974;SDS011;62136;-35.664;-63.766;2024-02-15T05:45:43;5.50;;;2.05;;
59974;SDS011;62136;-35.664;-63.766;2024-02-15T05:47:54;3.50;;;1.40;;
59974;SDS011;62136;-35.664;-63.766;2024-02-15T05:50:21;3.53;;;1.55;;
59974;SDS011;62136;-35.664;-63.766;2024-02-15T05:52:49;2.28;;;1.40;;
59974;SDS011;62136;-35.664;-63.766;2024-02-15T05:55:20;2.47;;;1.40;;
59974;SDS011;62136;-35.664;-63.766;2024-02-15T05:57:47;1.55;;;1.35;;
59974;SDS011;62136;-35.664;-63.766;2024-02-15T06:00:14;4.22;;;1.45;;
59974;SDS011;62136;-35.664;-63.766;2024-02-15T06:02:44;3.45;;;1.75;;
59974;SDS011;62136;-35.664;-63.766;2024-02-15T06:05:11;3.47;;;1.48;;
59974;SDS011;62136;-35.664;-63.766;2024-02-15T06:07:41;2.42;;;1.42;;
59974;SDS011;62136;-35.664;-63.766;2024-02-15T06:10:09;3.33;;;1.75;;
59974;SDS011;62136;-35.664;-63.766;2024-02-15T06:12:36;3.38;;;1.30;;
59974;SDS011;62136;-35.664;-63.766;2024-02-15T06:15:03;3.42;;;1.45;;
59974;SDS011;62136;-35.664;-63.766;2024-02-15T06:17:32;1.98;;;1.33;;
59974;SDS011;62136;-35.664;-63.766;2024-02-15T06:20:00;3.00;;;1.20;;
59974;SDS011;62136;-35.664;-63.766;2024-02-15T06:22:27;2.78;;;1.50;;
59974;SDS011;62136;-35.664;-63.766;2024-02-15T06:24:55;3.10;;;1.23;;
59974;SDS011;62136;-35.664;-63.766;2024-02-15T06:27:22;3.72;;;1.50;;
59974;SDS011;62136;-35.664;-63.766;2024-02-15T06:29:50;2.90;;;1.40;;
59974;SDS011;62136;-35.664;-63.766;2024-02-15T06:32:35;2.92;;;1.40;;
59974;SDS011;62136;-35.664;-63.766;2024-02-15T06:35:20;3.22;;;1.35;;
59974;SDS011;62136;-35.664;-63.766;2024-02-15T06:38:05;3.30;;;1.50;;
59974;SDS011;62136;-35.664;-63.766;2024-02-15T06:40:50;2.60;;;1.17;;
59974;SDS011;62136;-35.664;-63.766;2024-02-15T06:43:19;3.17;;;1.73;;
59974;SDS011;62136;-35.664;-63.766;2024-02-15T06:45:46;3.33;;;1.35;;
59974;SDS011;62136;-35.664;-63.766;2024-02-15T06:48:16;2.90;;;1.42;;
59974;SDS011;62136;-35.664;-63.766;2024-02-15T06:50:43;2.53;;;1.30;;
59974;SDS011;62136;-35.664;-63.766;2024-02-15T06:53:13;1.90;;;1.15;;
59974;SDS011;62136;-35.664;-63.766;2024-02-15T06:55:40;3.60;;;1.58;;
59974;SDS011;62136;-35.664;-63.766;2024-02-15T06:58:08;2.58;;;1.35;;
59974;SDS011;62136;-35.664;-63.766;2024-02-15T07:00:35;2.45;;;1.25;;
59974;SDS011;62136;-35.664;-63.766;2024-02-15T07:03:05;2.38;;;1.10;;
59974;SDS011;62136;-35.664;-63.766;2024-02-15T07:05:33;2.63;;;1.63;;
59974;SDS011;62136;-35.664;-63.766;2024-02-15T07:08:01;4.55;;;1.63;;
59974;SDS011;62136;-35.664;-63.766;2024-02-15T07:10:28;2.30;;;1.40;;
59974;SDS011;62136;-35.664;-63.766;2024-02-15T07:12:55;2.63;;;1.13;;
59974;SDS011;62136;-35.664;-63.766;2024-02-15T07:15:22;2.90;;;1.50;;
59974;SDS011;62136;-35.664;-63.766;2024-02-15T07:17:50;2.90;;;1.40;;
59974;SDS011;62136;-35.664;-63.766;2024-02-15T07:20:20;2.08;;;1.30;;
59974;SDS011;62136;-35.664;-63.766;2024-02-15T07:22:48;2.33;;;1.40;;
59974;SDS011;62136;-35.664;-63.766;2024-02-15T07:25:15;1.73;;;1.40;;
59974;SDS011;62136;-35.664;-63.766;2024-02-15T07:27:43;1.80;;;1.23;;
59974;SDS011;62136;-35.664;-63.766;2024-02-15T07:30:10;4.05;;;1.67;;
59974;SDS011;62136;-35.664;-63.766;2024-02-15T07:32:38;2.95;;;1.45;;
59974;SDS011;62136;-35.664;-63.766;2024-02-15T07:35:05;4.53;;;1.40;;
59974;SDS011;62136;-35.664;-63.766;2024-02-15T07:37:33;2.92;;;1.20;;
59974;SDS011;62136;-35.664;-63.766;2024-02-15T07:40:01;2.63;;;1.25;;
59974;SDS011;62136;-35.664;-63.766;2024-02-15T07:42:33;2.53;;;1.48;;
59974;SDS011;62136;-35.664;-63.766;2024-02-15T07:45:00;3.22;;;1.20;;
59974;SDS011;62136;-35.664;-63.766;2024-02-15T07:47:27;2.58;;;1.38;;
59974;SDS011;62136;-35.664;-63.766;2024-02-15T07:49:55;3.45;;;1.23;;
59974;SDS011;62136;-35.664;-63.766;2024-02-15T07:52:22;3.22;;;1.33;;
59974;SDS011;62136;-35.664;-63.766;2024-02-15T07:54:49;3.25;;;1.25;;
59974;SDS011;62136;-35.664;-63.766;2024-02-15T07:57:18;2.42;;;1.30;;
59974;SDS011;62136;-35.664;-63.766;2024-02-15T07:59:46;3.20;;;1.30;;
59974;SDS011;62136;-35.664;-63.766;2024-02-15T08:02:14;2.03;;;1.20;;
59974;SDS011;62136;-35.664;-63.766;2024-02-15T08:04:47;2.00;;;1.10;;
59974;SDS011;62136;-35.664;-63.766;2024-02-15T08:07:14;1.58;;;1.02;;
59974;SDS011;62136;-35.664;-63.766;2024-02-15T08:09:41;3.05;;;1.30;;
59974;SDS011;62136;-35.664;-63.766;2024-02-15T08:12:09;2.75;;;1.35;;
59974;SDS011;62136;-35.664;-63.766;2024-02-15T08:14:36;1.23;;;0.98;;
59974;SDS011;62136;-35.664;-63.766;2024-02-15T08:17:05;2.00;;;1.20;;
59974;SDS011;62136;-35.664;-63.766;2024-02-15T08:19:33;2.40;;;1.30;;
59974;SDS011;62136;-35.664;-63.766;2024-02-15T08:22:05;2.13;;;1.05;;
59974;SDS011;62136;-35.664;-63.766;2024-02-15T08:24:33;2.95;;;1.10;;
59974;SDS011;62136;-35.664;-63.766;2024-02-15T08:27:01;2.97;;;1.33;;
59974;SDS011;62136;-35.664;-63.766;2024-02-15T08:29:30;2.00;;;1.17;;
59974;SDS011;62136;-35.664;-63.766;2024-02-15T08:31:57;2.60;;;1.10;;
59974;SDS011;62136;-35.664;-63.766;2024-02-15T08:34:24;2.10;;;1.25;;
59974;SDS011;62136;-35.664;-63.766;2024-02-15T08:36:51;3.55;;;1.58;;
59974;SDS011;62136;-35.664;-63.766;2024-02-15T08:39:18;2.42;;;1.30;;
59974;SDS011;62136;-35.664;-63.766;2024-02-15T08:41:47;3.13;;;1.20;;
59974;SDS011;62136;-35.664;-63.766;2024-02-15T08:44:18;3.83;;;1.23;;
59974;SDS011;62136;-35.664;-63.766;2024-02-15T08:46:47;3.45;;;1.20;;
59974;SDS011;62136;-35.664;-63.766;2024-02-15T08:49:14;2.08;;;1.13;;
59974;SDS011;62136;-35.664;-63.766;2024-02-15T08:51:41;3.00;;;1.30;;
59974;SDS011;62136;-35.664;-63.766;2024-02-15T08:54:07;2.38;;;1.35;;
59974;SDS011;62136;-35.664;-63.766;2024-02-15T08:56:38;2.58;;;1.33;;
59974;SDS011;62136;-35.664;-63.766;2024-02-15T08:59:05;3.38;;;1.45;;
59974;SDS011;62136;-35.664;-63.766;2024-02-15T09:01:32;3.05;;;1.60;;
59974;SDS011;62136;-35.664;-63.766;2024-02-15T09:03:59;3.42;;;1.40;;
59974;SDS011;62136;-35.664;-63.766;2024-02-15T09:06:26;2.92;;;1.40;;
59974;SDS011;62136;-35.664;-63.766;2024-02-15T09:08:53;3.88;;;1.30;;
59974;SDS011;62136;-35.664;-63.766;2024-02-15T09:11:22;3.00;;;1.45;;
59974;SDS011;62136;-35.664;-63.766;2024-02-15T09:13:54;2.72;;;1.30;;
59974;SDS011;62136;-35.664;-63.766;2024-02-15T09:16:21;2.45;;;1.02;;
59974;SDS011;62136;-35.664;-63.766;2024-02-15T09:18:48;3.72;;;1.40;;
59974;SDS011;62136;-35.664;-63.766;2024-02-15T09:21:15;2.25;;;1.10;;
59974;SDS011;62136;-35.664;-63.766;2024-02-15T09:23:42;2.67;;;1.20;;
59974;SDS011;62136;-35.664;-63.766;2024-02-15T09:26:09;3.25;;;1.17;;
59974;SDS011;62136;-35.664;-63.766;2024-02-15T09:28:36;2.33;;;1.10;;
59974;SDS011;62136;-35.664;-63.766;2024-02-15T09:31:03;4.95;;;1.30;;
59974;SDS011;62136;-35.664;-63.766;2024-02-15T09:33:30;3.85;;;1.40;;
59974;SDS011;62136;-35.664;-63.766;2024-02-15T09:35:57;1.60;;;1.30;;
59974;SDS011;62136;-35.664;-63.766;2024-02-15T09:38:24;1.73;;;1.10;;
59974;SDS011;62136;-35.664;-63.766;2024-02-15T09:40:51;2.17;;;1.05;;
59974;SDS011;62136;-35.664;-63.766;2024-02-15T09:43:18;2.15;;;1.05;;
59974;SDS011;62136;-35.664;-63.766;2024-02-15T09:45:46;2.72;;;1.27;;
59974;SDS011;62136;-35.664;-63.766;2024-02-15T09:48:14;4.00;;;1.33;;
59974;SDS011;62136;-35.664;-63.766;2024-02-15T09:50:44;3.35;;;1.35;;
59974;SDS011;62136;-35.664;-63.766;2024-02-15T09:53:12;4.25;;;1.55;;
59974;SDS011;62136;-35.664;-63.766;2024-02-15T09:55:40;2.83;;;1.10;;
59974;SDS011;62136;-35.664;-63.766;2024-02-15T09:58:09;5.30;;;1.30;;
59974;SDS011;62136;-35.664;-63.766;2024-02-15T10:00:38;2.17;;;1.00;;
59974;SDS011;62136;-35.664;-63.766;2024-02-15T10:03:06;3.08;;;1.15;;
59974;SDS011;62136;-35.664;-63.766;2024-02-15T10:05:33;2.75;;;1.30;;
59974;SDS011;62136;-35.664;-63.766;2024-02-15T10:08:00;2.75;;;1.35;;
59974;SDS011;62136;-35.664;-63.766;2024-02-15T10:10:31;2.05;;;1.10;;
59974;SDS011;62136;-35.664;-63.766;2024-02-15T10:13:01;2.13;;;1.13;;
59974;SDS011;62136;-35.664;-63.766;2024-02-15T10:15:34;2.88;;;1.25;;
59974;SDS011;62136;-35.664;-63.766;2024-02-15T10:18:06;2.95;;;1.30;;
59974;SDS011;62136;-35.664;-63.766;2024-02-15T10:20:37;4.72;;;1.40;;
59974;SDS011;62136;-35.664;-63.766;2024-02-15T10:23:13;3.80;;;1.17;;
59974;SDS011;62136;-35.664;-63.766;2024-02-15T10:25:44;2.78;;;1.10;;
59974;SDS011;62136;-35.664;-63.766;2024-02-15T10:28:12;2.70;;;1.08;;
59974;SDS011;62136;-35.664;-63.766;2024-02-15T10:30:49;2.88;;;1.10;;
59974;SDS011;62136;-35.664;-63.766;2024-02-15T10:36:07;3.35;;;1.27;;
59974;SDS011;62136;-35.664;-63.766;2024-02-15T10:38:37;2.42;;;0.90;;
59974;SDS011;62136;-35.664;-63.766;2024-02-15T10:41:08;2.42;;;1.23;;
59974;SDS011;62136;-35.664;-63.766;2024-02-15T10:43:38;2.60;;;1.33;;
59974;SDS011;62136;-35.664;-63.766;2024-02-15T10:46:09;3.25;;;1.30;;
59974;SDS011;62136;-35.664;-63.766;2024-02-15T10:48:37;2.03;;;1.10;;
59974;SDS011;62136;-35.664;-63.766;2024-02-15T10:51:06;1.77;;;1.13;;
59974;SDS011;62136;-35.664;-63.766;2024-02-15T10:53:39;2.55;;;1.08;;
59974;SDS011;62136;-35.664;-63.766;2024-02-15T10:56:21;1.63;;;1.10;;
59974;SDS011;62136;-35.664;-63.766;2024-02-15T10:59:10;2.80;;;2.00;;
59974;SDS011;62136;-35.664;-63.766;2024-02-15T11:01:46;1.55;;;0.90;;
59974;SDS011;62136;-35.664;-63.766;2024-02-15T11:05:12;3.05;;;1.30;;
59974;SDS011;62136;-35.664;-63.766;2024-02-15T11:07:46;3.35;;;1.75;;
59974;SDS011;62136;-35.664;-63.766;2024-02-15T11:10:14;4.10;;;1.08;;
59974;SDS011;62136;-35.664;-63.766;2024-02-15T11:12:42;2.35;;;1.25;;
59974;SDS011;62136;-35.664;-63.766;2024-02-15T11:15:10;3.08;;;1.33;;
59974;SDS011;62136;-35.664;-63.766;2024-02-15T11:20:06;2.88;;;1.08;;
59974;SDS011;62136;-35.664;-63.766;2024-02-15T11:22:37;3.67;;;1.35;;
59974;SDS011;62136;-35.664;-63.766;2024-02-15T11:25:04;3.50;;;1.13;;
59974;SDS011;62136;-35.664;-63.766;2024-02-15T11:27:37;4.20;;;1.30;;
59974;SDS011;62136;-35.664;-63.766;2024-02-15T11:30:07;1.88;;;1.23;;
59974;SDS011;62136;-35.664;-63.766;2024-02-15T11:32:39;2.55;;;1.20;;
59974;SDS011;62136;-35.664;-63.766;2024-02-15T11:35:15;2.95;;;1.30;;
59974;SDS011;62136;-35.664;-63.766;2024-02-15T11:40:59;4.30;;;1.40;;
59974;SDS011;62136;-35.664;-63.766;2024-02-15T11:46:25;3.45;;;1.15;;
59974;SDS011;62136;-35.664;-63.766;2024-02-15T11:48:58;4.68;;;1.30;;
59974;SDS011;62136;-35.664;-63.766;2024-02-15T11:51:30;5.88;;;1.30;;
59974;SDS011;62136;-35.664;-63.766;2024-02-15T11:54:22;3.75;;;1.40;;
59974;SDS011;62136;-35.664;-63.766;2024-02-15T11:56:53;6.60;;;1.75;;
59974;SDS011;62136;-35.664;-63.766;2024-02-15T11:59:42;3.13;;;1.30;;
59974;SDS011;62136;-35.664;-63.766;2024-02-15T12:02:31;4.70;;;1.60;;
59974;SDS011;62136;-35.664;-63.766;2024-02-15T12:05:17;3.08;;;1.33;;
59974;SDS011;62136;-35.664;-63.766;2024-02-15T12:08:02;4.63;;;1.42;;
59974;SDS011;62136;-35.664;-63.766;2024-02-15T12:10:56;3.95;;;1.00;;
59974;SDS011;62136;-35.664;-63.766;2024-02-15T12:13:53;3.53;;;1.30;;
59974;SDS011;62136;-35.664;-63.766;2024-02-15T12:16:38;3.95;;;1.30;;
59974;SDS011;62136;-35.664;-63.766;2024-02-15T12:19:23;3.60;;;1.48;;
59974;SDS011;62136;-35.664;-63.766;2024-02-15T12:21:50;4.50;;;1.20;;
59974;SDS011;62136;-35.664;-63.766;2024-02-15T12:24:18;5.30;;;1.15;;
59974;SDS011;62136;-35.664;-63.766;2024-02-15T12:26:50;2.42;;;1.27;;
59974;SDS011;62136;-35.664;-63.766;2024-02-15T12:29:18;4.22;;;1.55;;
59974;SDS011;62136;-35.664;-63.766;2024-02-15T12:31:46;3.00;;;1.10;;
59974;SDS011;62136;-35.664;-63.766;2024-02-15T12:34:14;5.13;;;1.30;;
59974;SDS011;62136;-35.664;-63.766;2024-02-15T12:36:46;3.88;;;1.30;;
59974;SDS011;62136;-35.664;-63.766;2024-02-15T12:39:14;6.45;;;1.48;;
59974;SDS011;62136;-35.664;-63.766;2024-02-15T12:41:50;6.05;;;1.48;;
59974;SDS011;62136;-35.664;-63.766;2024-02-15T12:44:18;5.50;;;1.30;;
59974;SDS011;62136;-35.664;-63.766;2024-02-15T12:51:50;5.90;;;1.45;;
59974;SDS011;62136;-35.664;-63.766;2024-02-15T12:54:21;3.15;;;1.17;;
59974;SDS011;62136;-35.664;-63.766;2024-02-15T12:56:49;4.18;;;1.50;;
59974;SDS011;62136;-35.664;-63.766;2024-02-15T12:59:19;6.40;;;1.63;;
59974;SDS011;62136;-35.664;-63.766;2024-02-15T13:01:46;5.13;;;1.52;;
59974;SDS011;62136;-35.664;-63.766;2024-02-15T13:04:25;5.38;;;1.67;;
59974;SDS011;62136;-35.664;-63.766;2024-02-15T13:06:53;4.65;;;1.67;;
59974;SDS011;62136;-35.664;-63.766;2024-02-15T13:09:20;6.07;;;1.73;;
59974;SDS011;62136;-35.664;-63.766;2024-02-15T13:11:48;7.05;;;1.90;;
59974;SDS011;62136;-35.664;-63.766;2024-02-15T13:14:17;5.13;;;1.80;;
59974;SDS011;62136;-35.664;-63.766;2024-02-15T13:16:45;7.70;;;1.80;;
59974;SDS011;62136;-35.664;-63.766;2024-02-15T13:19:13;4.18;;;1.58;;
59974;SDS011;62136;-35.664;-63.766;2024-02-15T13:21:40;7.00;;;1.65;;
59974;SDS011;62136;-35.664;-63.766;2024-02-15T13:24:07;6.53;;;1.77;;
59974;SDS011;62136;-35.664;-63.766;2024-02-15T13:26:37;6.07;;;1.55;;
59974;SDS011;62136;-35.664;-63.766;2024-02-15T13:29:05;5.40;;;1.65;;
59974;SDS011;62136;-35.664;-63.766;2024-02-15T13:31:32;4.90;;;1.48;;
59974;SDS011;62136;-35.664;-63.766;2024-02-15T13:34:00;6.22;;;2.03;;
59974;SDS011;62136;-35.664;-63.766;2024-02-15T13:36:27;5.50;;;1.80;;
59974;SDS011;62136;-35.664;-63.766;2024-02-15T13:38:54;7.57;;;1.92;;
59974;SDS011;62136;-35.664;-63.766;2024-02-15T13:41:21;4.28;;;1.40;;
59974;SDS011;62136;-35.664;-63.766;2024-02-15T13:43:48;6.72;;;2.17;;
59974;SDS011;62136;-35.664;-63.766;2024-02-15T13:46:15;3.88;;;1.42;;
59974;SDS011;62136;-35.664;-63.766;2024-02-15T13:48:45;5.05;;;1.88;;
59974;SDS011;62136;-35.664;-63.766;2024-02-15T13:51:12;6.93;;;2.05;;
59974;SDS011;62136;-35.664;-63.766;2024-02-15T13:53:39;4.68;;;1.80;;
59974;SDS011;62136;-35.664;-63.766;2024-02-15T13:56:08;5.70;;;1.75;;
59974;SDS011;62136;-35.664;-63.766;2024-02-15T13:58:37;3.55;;;1.70;;
59974;SDS011;62136;-35.664;-63.766;2024-02-15T14:01:04;8.02;;;2.00;;
59974;SDS011;62136;-35.664;-63.766;2024-02-15T14:03:33;6.65;;;1.88;;
59974;SDS011;62136;-35.664;-63.766;2024-02-15T14:06:11;6.45;;;1.63;;
59974;SDS011;62136;-35.664;-63.766;2024-02-15T14:08:40;3.65;;;1.42;;
59974;SDS011;62136;-35.664;-63.766;2024-02-15T14:11:12;6.32;;;1.65;;
59974;SDS011;62136;-35.664;-63.766;2024-02-15T14:13:40;5.03;;;1.63;;
59974;SDS011;62136;-35.664;-63.766;2024-02-15T14:16:07;7.32;;;1.92;;
59974;SDS011;62136;-35.664;-63.766;2024-02-15T14:18:34;4.95;;;2.03;;
59974;SDS011;62136;-35.664;-63.766;2024-02-15T14:21:04;3.85;;;1.55;;
59974;SDS011;62136;-35.664;-63.766;2024-02-15T14:23:36;3.60;;;1.50;;
59974;SDS011;62136;-35.664;-63.766;2024-02-15T14:26:04;6.05;;;2.17;;
59974;SDS011;62136;-35.664;-63.766;2024-02-15T14:28:38;9.77;;;1.85;;
59974;SDS011;62136;-35.664;-63.766;2024-02-15T14:31:07;5.90;;;1.90;;
59974;SDS011;62136;-35.664;-63.766;2024-02-15T14:33:55;5.35;;;1.75;;
59974;SDS011;62136;-35.664;-63.766;2024-02-15T14:36:25;4.68;;;1.70;;
59974;SDS011;62136;-35.664;-63.766;2024-02-15T14:38:53;5.32;;;1.77;;
59974;SDS011;62136;-35.664;-63.766;2024-02-15T14:41:25;6.03;;;1.80;;
59974;SDS011;62136;-35.664;-63.766;2024-02-15T14:43:54;6.55;;;1.70;;
59974;SDS011;62136;-35.664;-63.766;2024-02-15T14:46:22;6.25;;;2.03;;
59974;SDS011;62136;-35.664;-63.766;2024-02-15T14:48:49;5.35;;;1.60;;
59974;SDS011;62136;-35.664;-63.766;2024-02-15T14:51:17;5.60;;;2.00;;